createdAt,value
2022-09-21T00:01:29.832Z,11.52
2022-09-21T00:04:00.058Z,11.67
2022-09-21T00:06:29.249Z,11.77
2022-09-21T00:08:57.034Z,11.66
2022-09-21T00:11:27.495Z,11.01
2022-09-21T00:13:57.721Z,11.60
2022-09-21T00:16:25.391Z,11.76
2022-09-21T00:18:53.023Z,11.68
2022-09-21T00:24:07.615Z,11.32
2022-09-21T00:26:35.221Z,11.41
2022-09-21T00:29:03.993Z,11.22
2022-09-21T00:31:31.996Z,11.25
2022-09-21T00:34:00.270Z,11.24
2022-09-21T00:36:28.404Z,10.99
2022-09-21T00:38:58.130Z,11.00
2022-09-21T00:41:26.919Z,10.96
2022-09-21T00:44:32.917Z,11.58
2022-09-21T00:47:09.449Z,11.64
2022-09-21T00:49:38.401Z,11.45
2022-09-21T00:52:06.841Z,11.48
2022-09-21T00:54:43.612Z,11.55
2022-09-21T00:57:11.702Z,11.41
2022-09-21T00:59:39.767Z,11.32
2022-09-21T01:02:07.231Z,11.25
2022-09-21T01:04:36.189Z,11.20
2022-09-21T01:07:06.697Z,11.14
2022-09-21T01:09:34.528Z,11.00
2022-09-21T01:12:18.476Z,11.45
2022-09-21T01:14:50.620Z,11.34
2022-09-21T01:17:35.107Z,11.09
2022-09-21T01:20:08.627Z,11.33
2022-09-21T01:23:07.445Z,11.17
2022-09-21T01:25:34.645Z,11.36
2022-09-21T01:28:52.931Z,11.00
2022-09-21T01:31:27.020Z,10.69
2022-09-21T01:33:59.166Z,10.54
2022-09-21T01:36:29.434Z,10.83
2022-09-21T01:39:03.420Z,10.34
2022-09-21T01:41:32.436Z,10.74
2022-09-21T01:44:08.447Z,10.80
2022-09-21T01:46:37.334Z,10.68
2022-09-21T01:49:10.690Z,10.62
2022-09-21T01:51:43.897Z,11.00
2022-09-21T01:54:15.370Z,10.83
2022-09-21T01:56:51.956Z,10.76
2022-09-21T01:59:21.852Z,10.73
2022-09-21T02:01:53.767Z,10.87
2022-09-21T02:04:21.616Z,10.82
2022-09-21T02:06:49.941Z,11.33
2022-09-21T02:09:18.078Z,10.67
2022-09-21T02:11:45.971Z,10.81
2022-09-21T02:14:18.280Z,10.75
2022-09-21T02:16:45.846Z,11.26
2022-09-21T02:19:31.874Z,11.31
2022-09-21T02:22:07.814Z,11.35
2022-09-21T02:24:41.471Z,10.74
2022-09-21T02:27:26.128Z,10.46
2022-09-21T02:30:17.106Z,10.91
2022-09-21T02:33:14.017Z,11.50
2022-09-21T02:35:56.097Z,11.37
2022-09-21T02:38:42.832Z,10.84
2022-09-21T02:41:20.346Z,11.37
2022-09-21T02:43:53.142Z,11.36
2022-09-21T02:46:36.662Z,11.28
2022-09-21T02:49:11.159Z,11.49
2022-09-21T02:51:48.093Z,10.90
2022-09-21T02:54:18.679Z,11.01
2022-09-21T02:56:49.033Z,10.40
2022-09-21T02:59:16.782Z,10.77
2022-09-21T03:01:44.469Z,10.67
2022-09-21T03:04:11.917Z,11.07
2022-09-21T03:06:39.519Z,11.37
2022-09-21T03:09:07.082Z,11.53
2022-09-21T03:11:36.109Z,10.90
2022-09-21T03:14:08.448Z,10.76
2022-09-21T03:16:36.512Z,10.94
2022-09-21T03:19:05.625Z,10.93
2022-09-21T03:21:33.065Z,10.80
2022-09-21T03:24:00.436Z,10.59
2022-09-21T03:26:28.047Z,11.31
2022-09-21T03:28:55.565Z,11.22
2022-09-21T03:31:23.019Z,11.09
2022-09-21T03:33:50.649Z,11.04
2022-09-21T03:36:18.236Z,10.63
2022-09-21T03:38:45.653Z,10.96
2022-09-21T03:41:15.225Z,10.96
2022-09-21T03:43:42.579Z,10.99
2022-09-21T03:46:10.164Z,10.46
2022-09-21T03:48:37.901Z,10.45
2022-09-21T03:51:05.421Z,10.65
2022-09-21T03:53:32.823Z,10.72
2022-09-21T03:56:00.510Z,11.25
2022-09-21T03:58:27.864Z,11.73
2022-09-21T04:01:01.240Z,11.50
2022-09-21T04:03:29.825Z,11.73
2022-09-21T04:05:57.236Z,11.73
2022-09-21T04:08:24.557Z,10.90
2022-09-21T04:10:52.167Z,11.28
2022-09-21T04:13:19.503Z,11.28
2022-09-21T04:15:46.877Z,11.35
2022-09-21T04:18:15.028Z,11.44
2022-09-21T04:20:42.347Z,10.87
2022-09-21T04:23:09.992Z,11.08
2022-09-21T04:25:37.597Z,11.50
2022-09-21T04:28:04.957Z,11.26
2022-09-21T04:30:37.588Z,11.24
2022-09-21T04:33:06.063Z,11.13
2022-09-21T04:35:33.412Z,10.97
2022-09-21T04:38:00.753Z,11.01
2022-09-21T04:40:28.742Z,10.37
2022-09-21T04:42:56.222Z,10.40
2022-09-21T04:45:23.587Z,10.21
2022-09-21T04:47:51.182Z,10.44
2022-09-21T04:50:19.758Z,10.37
2022-09-21T04:52:47.727Z,10.56
2022-09-21T04:55:15.457Z,10.16
2022-09-21T04:57:42.881Z,10.64
2022-09-21T05:00:10.871Z,10.24
2022-09-21T05:02:38.453Z,9.93
2022-09-21T05:05:06.090Z,9.59
2022-09-21T05:07:33.431Z,9.74
2022-09-21T05:10:04.092Z,9.94
2022-09-21T05:12:33.065Z,10.50
2022-09-21T05:15:01.077Z,10.58
2022-09-21T05:17:28.667Z,10.85
2022-09-21T05:19:56.027Z,10.22
2022-09-21T05:22:23.810Z,10.77
2022-09-21T05:24:51.157Z,10.68
2022-09-21T05:27:18.497Z,10.30
2022-09-21T05:29:46.295Z,10.60
2022-09-21T05:32:27.347Z,10.84
2022-09-21T05:35:16.635Z,10.98
2022-09-21T05:38:04.596Z,10.96
2022-09-21T05:40:32.620Z,10.93
2022-09-21T05:43:00.322Z,11.08
2022-09-21T05:45:29.026Z,11.38
2022-09-21T05:48:06.037Z,11.62
2022-09-21T05:50:48.763Z,11.93
2022-09-21T05:53:53.507Z,12.14
2022-09-21T05:56:42.348Z,11.70
2022-09-21T05:59:12.881Z,11.94
2022-09-21T06:02:01.610Z,11.64
2022-09-21T06:04:29.608Z,11.79
2022-09-21T06:06:56.957Z,11.52
2022-09-21T06:09:25.857Z,11.38
2022-09-21T06:11:53.857Z,11.66
2022-09-21T06:14:25.524Z,11.68
2022-09-21T06:16:53.199Z,11.43
2022-09-21T06:19:20.657Z,11.14
2022-09-21T06:21:48.147Z,11.49
2022-09-21T06:24:15.751Z,11.82
2022-09-21T06:26:43.208Z,12.16
2022-09-21T06:29:10.568Z,12.36
2022-09-21T06:31:38.149Z,12.65
2022-09-21T06:34:05.606Z,12.37
2022-09-21T06:36:33.037Z,12.61
2022-09-21T06:39:00.662Z,13.11
2022-09-21T06:41:28.154Z,12.84
2022-09-21T06:43:57.125Z,13.34
2022-09-21T06:46:24.920Z,12.63
2022-09-21T06:48:52.279Z,12.71
2022-09-21T06:51:21.586Z,13.05
2022-09-21T06:53:55.664Z,12.96
2022-09-21T06:56:23.444Z,13.22
2022-09-21T06:58:52.492Z,12.89
2022-09-21T07:01:20.105Z,13.22
2022-09-21T07:03:51.781Z,13.16
2022-09-21T07:06:20.433Z,13.59
2022-09-21T07:11:41.876Z,14.15
2022-09-21T07:14:09.201Z,13.49
2022-09-21T07:16:37.490Z,13.94
2022-09-21T07:19:11.815Z,14.13
2022-09-21T07:21:39.850Z,14.02
2022-09-21T07:24:11.672Z,13.79
2022-09-21T07:26:40.000Z,14.16
2022-09-21T07:29:07.489Z,13.95
2022-09-21T07:31:35.282Z,14.63
2022-09-21T07:34:03.077Z,14.96
2022-09-21T07:36:30.876Z,14.83
2022-09-21T07:38:58.480Z,14.01
2022-09-21T07:41:26.153Z,14.33
2022-09-21T07:43:53.648Z,15.14
2022-09-21T07:46:21.106Z,14.75
2022-09-21T07:48:48.708Z,14.42
2022-09-21T07:51:16.766Z,14.34
2022-09-21T07:53:46.953Z,15.43
2022-09-21T07:56:17.830Z,15.01
2022-09-21T07:59:03.822Z,15.17
2022-09-21T08:01:32.607Z,15.16
2022-09-21T08:04:00.815Z,15.17
2022-09-21T08:06:30.496Z,15.03
2022-09-21T08:08:58.325Z,15.11
2022-09-21T08:11:27.754Z,15.34
2022-09-21T08:13:57.634Z,15.68
2022-09-21T08:16:27.626Z,15.78
2022-09-21T08:18:55.181Z,16.13
2022-09-21T08:21:22.934Z,15.96
2022-09-21T08:23:50.535Z,16.36
2022-09-21T08:26:19.812Z,16.54
2022-09-21T08:28:49.240Z,16.23
2022-09-21T08:31:19.755Z,15.98
2022-09-21T08:33:48.136Z,16.09
2022-09-21T08:36:15.720Z,16.64
2022-09-21T08:38:43.391Z,16.91
2022-09-21T08:41:20.200Z,15.88
2022-09-21T08:44:07.659Z,16.13
2022-09-21T08:46:36.998Z,16.78
2022-09-21T08:49:17.836Z,16.23
2022-09-21T08:52:16.906Z,16.62
2022-09-21T08:54:52.769Z,16.76
2022-09-21T08:57:20.509Z,16.27
2022-09-21T08:59:49.504Z,16.64
2022-09-21T09:02:54.614Z,16.93
2022-09-21T09:05:33.757Z,17.27
2022-09-21T09:08:04.319Z,16.90
2022-09-21T09:10:55.927Z,16.99
2022-09-21T09:13:32.400Z,17.04
2022-09-21T09:16:15.300Z,17.08
2022-09-21T09:18:46.469Z,16.36
2022-09-21T09:21:30.777Z,16.70
2022-09-21T09:24:06.220Z,16.82
2022-09-21T09:26:43.089Z,16.37
2022-09-21T09:29:29.569Z,16.94
2022-09-21T09:31:59.420Z,15.61
2022-09-21T09:34:32.542Z,16.05
2022-09-21T09:37:09.335Z,16.62
2022-09-21T09:39:37.098Z,16.02
2022-09-21T09:42:23.775Z,15.61
2022-09-21T09:45:25.493Z,16.25
2022-09-21T09:48:12.556Z,16.75
2022-09-21T09:50:40.751Z,16.75
2022-09-21T09:53:13.498Z,16.26
2022-09-21T09:55:43.880Z,16.77
2022-09-21T09:58:17.729Z,16.22
2022-09-21T10:00:46.372Z,16.84
2022-09-21T10:03:19.656Z,16.99
2022-09-21T10:05:47.611Z,17.07
2022-09-21T10:08:34.453Z,16.99
2022-09-21T10:11:02.943Z,17.04
2022-09-21T10:13:32.391Z,17.42
2022-09-21T10:16:19.762Z,17.81
2022-09-21T10:18:49.923Z,17.62
2022-09-21T10:21:52.088Z,18.43
2022-09-21T10:24:25.870Z,18.59
2022-09-21T10:27:11.750Z,18.37
2022-09-21T10:29:47.857Z,17.07
2022-09-21T10:32:16.395Z,16.84
2022-09-21T10:35:12.935Z,16.82
2022-09-21T10:37:46.399Z,16.88
2022-09-21T10:40:20.270Z,18.04
2022-09-21T10:42:59.079Z,16.67
2022-09-21T10:45:31.830Z,17.35
2022-09-21T10:48:05.333Z,17.88
2022-09-21T10:50:39.636Z,18.07
2022-09-21T10:53:09.892Z,17.13
2022-09-21T10:55:44.076Z,17.13
2022-09-21T10:58:20.370Z,18.04
2022-09-21T11:00:51.804Z,18.15
2022-09-21T11:03:57.753Z,18.40
2022-09-21T11:06:37.716Z,18.48
2022-09-21T11:09:23.765Z,18.16
2022-09-21T11:11:58.207Z,17.79
2022-09-21T11:14:38.650Z,18.01
2022-09-21T11:17:20.132Z,17.25
2022-09-21T11:19:52.704Z,17.96
2022-09-21T11:22:32.680Z,18.35
2022-09-21T11:25:18.673Z,18.46
2022-09-21T11:27:49.385Z,17.93
2022-09-21T11:30:18.583Z,17.89
2022-09-21T11:33:02.327Z,18.12
2022-09-21T11:35:50.660Z,17.59
2022-09-21T11:38:46.331Z,17.99
2022-09-21T11:41:19.578Z,17.86
2022-09-21T11:44:03.645Z,17.85
2022-09-21T11:46:46.792Z,17.70
2022-09-21T11:49:39.243Z,17.53
2022-09-21T11:52:39.081Z,17.66
2022-09-21T11:55:06.697Z,18.38
2022-09-21T11:57:45.544Z,18.61
2022-09-21T12:00:18.800Z,18.54
2022-09-21T12:03:16.092Z,18.44
2022-09-21T12:05:43.330Z,18.50
2022-09-21T12:08:37.141Z,18.24
2022-09-21T12:11:49.169Z,18.85
2022-09-21T12:14:28.607Z,19.05
2022-09-21T12:17:05.897Z,19.15
2022-09-21T12:20:02.290Z,18.27
2022-09-21T12:22:36.186Z,18.50
2022-09-21T12:25:24.078Z,18.56
2022-09-21T12:28:01.266Z,19.05
2022-09-21T12:30:31.366Z,18.83
2022-09-21T12:33:12.841Z,17.75
2022-09-21T12:35:46.758Z,18.04
2022-09-21T12:38:21.281Z,17.71
2022-09-21T12:41:11.398Z,18.48
2022-09-21T12:43:44.398Z,18.84
2022-09-21T12:46:24.420Z,18.69
2022-09-21T12:48:52.995Z,19.14
2022-09-21T12:51:37.137Z,19.34
2022-09-21T12:54:12.398Z,19.07
2022-09-21T12:56:52.201Z,18.09
2022-09-21T12:59:43.943Z,17.95
2022-09-21T13:02:17.820Z,17.77
2022-09-21T13:04:48.064Z,17.27
2022-09-21T13:07:43.880Z,17.30
2022-09-21T13:10:24.076Z,17.25
2022-09-21T13:12:56.269Z,17.92
2022-09-21T13:15:30.024Z,17.83
2022-09-21T13:18:26.330Z,17.62
2022-09-21T13:20:54.382Z,17.08
2022-09-21T13:23:30.387Z,16.75
2022-09-21T13:26:07.149Z,17.41
2022-09-21T13:28:56.888Z,18.21
2022-09-21T13:31:41.740Z,18.08
2022-09-21T13:34:15.501Z,18.24
2022-09-21T13:36:43.360Z,18.04
2022-09-21T13:39:17.194Z,18.17
2022-09-21T13:42:02.929Z,18.16
2022-09-21T13:44:34.347Z,18.34
2022-09-21T13:47:02.234Z,18.48
2022-09-21T13:49:39.825Z,18.25
2022-09-21T13:52:13.610Z,18.17
2022-09-21T13:54:52.957Z,18.41
2022-09-21T13:57:38.794Z,19.08
2022-09-21T14:00:09.939Z,19.31
2022-09-21T14:02:42.824Z,19.08
2022-09-21T14:05:39.344Z,19.30
2022-09-21T14:08:18.807Z,19.05
2022-09-21T14:10:55.887Z,19.15
2022-09-21T14:13:27.571Z,18.67
2022-09-21T14:15:55.494Z,17.96
2022-09-21T14:18:37.631Z,17.42
2022-09-21T14:21:11.206Z,17.40
2022-09-21T14:23:40.151Z,17.19
2022-09-21T14:26:39.958Z,17.86
2022-09-21T14:29:16.221Z,17.51
2022-09-21T14:31:44.123Z,17.74
2022-09-21T14:34:17.933Z,18.10
2022-09-21T14:36:47.606Z,17.41
2022-09-21T14:39:29.494Z,17.15
2022-09-21T14:41:59.322Z,17.35
2022-09-21T14:44:30.036Z,18.03
2022-09-21T14:47:06.776Z,17.13
2022-09-21T14:49:52.459Z,16.66
2022-09-21T14:52:38.875Z,17.18
2022-09-21T14:55:16.795Z,17.74
2022-09-21T14:58:16.568Z,17.17
2022-09-21T15:00:49.667Z,17.25
2022-09-21T15:03:35.778Z,16.77
2022-09-21T15:06:44.697Z,17.47
2022-09-21T15:10:04.217Z,17.78
2022-09-21T15:12:46.536Z,17.32
2022-09-21T15:15:40.682Z,17.31
2022-09-21T15:18:20.087Z,17.26
2022-09-21T15:21:04.105Z,17.60
2022-09-21T15:23:34.315Z,17.40
2022-09-21T15:26:05.169Z,17.22
2022-09-21T15:28:57.904Z,17.31
2022-09-21T15:31:24.578Z,17.04
2022-09-21T15:33:53.362Z,17.43
2022-09-21T15:36:23.256Z,17.85
2022-09-21T15:38:52.575Z,17.21
2022-09-21T15:41:44.968Z,17.21
2022-09-21T15:44:16.325Z,17.61
2022-09-21T15:46:48.170Z,16.95
2022-09-21T15:49:22.026Z,17.16
2022-09-21T15:51:54.609Z,16.46
2022-09-21T15:54:32.014Z,17.16
2022-09-21T15:57:05.953Z,16.85
2022-09-21T15:59:35.827Z,16.64
2022-09-21T16:02:11.756Z,16.45
2022-09-21T16:04:49.265Z,16.59
2022-09-21T16:07:42.993Z,17.18
2022-09-21T16:10:33.849Z,16.95
2022-09-21T16:13:23.940Z,16.40
2022-09-21T16:16:02.620Z,16.53
2022-09-21T16:18:43.122Z,16.38
2022-09-21T16:21:24.259Z,16.36
2022-09-21T16:23:52.730Z,16.25
2022-09-21T16:26:28.296Z,16.17
2022-09-21T16:29:16.628Z,16.00
2022-09-21T16:31:49.706Z,15.68
2022-09-21T16:34:33.276Z,16.01
2022-09-21T16:37:02.789Z,16.28
2022-09-21T16:39:30.147Z,16.08
2022-09-21T16:42:00.983Z,16.38
2022-09-21T16:44:40.129Z,16.44
2022-09-21T16:47:13.404Z,16.21
2022-09-21T16:49:41.441Z,15.93
2022-09-21T16:52:09.317Z,16.45
2022-09-21T16:54:37.492Z,15.84
2022-09-21T16:57:06.370Z,15.76
2022-09-21T16:59:35.751Z,15.61
2022-09-21T17:02:05.020Z,16.14
2022-09-21T17:04:34.369Z,16.26
2022-09-21T17:07:05.016Z,16.37
2022-09-21T17:09:41.458Z,16.44
2022-09-21T17:12:11.573Z,16.19
2022-09-21T17:14:45.621Z,16.34
2022-09-21T17:17:18.754Z,15.72
2022-09-21T17:19:48.477Z,16.08
2022-09-21T17:22:19.494Z,15.91
2022-09-21T17:24:51.693Z,15.61
2022-09-21T17:27:21.870Z,16.13
2022-09-21T17:29:50.247Z,16.24
2022-09-21T17:32:20.572Z,15.92
2022-09-21T17:34:58.836Z,15.26
2022-09-21T17:37:26.840Z,15.62
2022-09-21T17:39:54.254Z,15.56
2022-09-21T17:42:25.136Z,15.77
2022-09-21T17:45:38.751Z,15.78
2022-09-21T17:48:13.049Z,15.58
2022-09-21T17:50:40.796Z,15.77
2022-09-21T17:53:27.678Z,14.93
2022-09-21T17:55:58.545Z,15.77
2022-09-21T17:58:47.573Z,15.13
2022-09-21T18:01:36.087Z,15.79
2022-09-21T18:04:04.694Z,14.69
2022-09-21T18:06:34.091Z,14.96
2022-09-21T18:09:01.796Z,14.89
2022-09-21T18:11:45.905Z,15.36
2022-09-21T18:14:31.666Z,14.95
2022-09-21T18:17:01.894Z,14.92
2022-09-21T18:19:52.293Z,15.13
2022-09-21T18:23:00.457Z,14.60
2022-09-21T18:25:47.774Z,14.54
2022-09-21T18:28:24.148Z,15.20
2022-09-21T18:31:15.135Z,14.84
2022-09-21T18:33:48.533Z,14.96
2022-09-21T18:36:22.300Z,14.95
2022-09-21T18:39:16.825Z,14.79
2022-09-21T18:42:09.243Z,15.05
2022-09-21T18:44:42.109Z,15.05
2022-09-21T18:47:16.306Z,14.96
2022-09-21T18:50:02.513Z,14.78
2022-09-21T18:52:29.995Z,14.67
2022-09-21T18:54:57.869Z,14.41
2022-09-21T18:57:25.863Z,14.72
2022-09-21T18:59:54.034Z,14.66
2022-09-21T19:02:21.967Z,14.49
2022-09-21T19:04:49.769Z,14.37
2022-09-21T19:07:28.274Z,14.09
2022-09-21T19:10:13.707Z,14.01
2022-09-21T19:13:07.828Z,14.03
2022-09-21T19:16:02.040Z,13.87
2022-09-21T19:18:41.666Z,13.79
2022-09-21T19:21:17.311Z,13.52
2022-09-21T19:23:59.253Z,13.36
2022-09-21T19:26:45.116Z,13.44
2022-09-21T19:29:31.839Z,13.39
2022-09-21T19:31:59.645Z,13.61
2022-09-21T19:34:28.134Z,13.55
2022-09-21T19:36:57.357Z,13.52
2022-09-21T19:39:25.283Z,13.53
2022-09-21T19:42:08.913Z,13.52
2022-09-21T19:45:02.377Z,13.45
2022-09-21T19:47:40.902Z,13.24
2022-09-21T19:50:28.172Z,13.32
2022-09-21T19:53:15.882Z,12.88
2022-09-21T19:56:02.590Z,13.37
2022-09-21T19:58:48.715Z,13.45
2022-09-21T20:01:18.100Z,13.17
2022-09-21T20:03:47.207Z,13.07
2022-09-21T20:06:29.346Z,12.67
2022-09-21T20:09:13.086Z,12.67
2022-09-21T20:12:07.940Z,12.84
2022-09-21T20:14:38.852Z,13.07
2022-09-21T20:17:10.686Z,12.53
2022-09-21T20:19:53.073Z,12.51
2022-09-21T20:22:46.849Z,12.70
2022-09-21T20:25:21.588Z,12.64
2022-09-21T20:27:51.694Z,12.76
2022-09-21T20:30:33.838Z,12.67
2022-09-21T20:33:08.940Z,13.07
2022-09-21T20:35:36.659Z,13.14
2022-09-21T20:38:04.094Z,13.09
2022-09-21T20:40:32.370Z,12.99
2022-09-21T20:43:01.236Z,12.62
2022-09-21T20:45:29.629Z,12.72
2022-09-21T20:48:13.117Z,12.90
2022-09-21T20:50:44.536Z,12.58
2022-09-21T20:53:12.674Z,12.86
2022-09-21T20:55:41.155Z,12.56
2022-09-21T20:58:12.930Z,11.98
2022-09-21T21:00:40.468Z,12.64
2022-09-21T21:03:07.994Z,12.20
2022-09-21T21:05:35.614Z,12.43
2022-09-21T21:08:03.740Z,12.74
2022-09-21T21:10:31.818Z,11.88
2022-09-21T21:12:59.441Z,12.02
2022-09-21T21:15:27.310Z,12.49
2022-09-21T21:17:54.790Z,12.56
2022-09-21T21:20:22.687Z,12.52
2022-09-21T21:22:51.117Z,12.59
2022-09-21T21:25:18.569Z,12.71
2022-09-21T21:27:46.290Z,12.59
2022-09-21T21:30:13.745Z,12.58
2022-09-21T21:32:42.743Z,12.61
2022-09-21T21:35:10.351Z,12.63
2022-09-21T21:37:37.836Z,12.59
2022-09-21T21:40:05.748Z,12.02
2022-09-21T21:42:34.354Z,11.89
2022-09-21T21:45:01.684Z,12.39
2022-09-21T21:47:44.607Z,11.92
2022-09-21T21:50:12.283Z,12.42
2022-09-21T21:52:40.605Z,12.13
2022-09-21T21:55:08.383Z,12.39
2022-09-21T21:57:36.002Z,12.58
2022-09-21T22:00:04.858Z,12.43
2022-09-21T22:02:32.441Z,12.01
2022-09-21T22:05:00.137Z,12.25
2022-09-21T22:07:27.463Z,12.44
2022-09-21T22:09:55.589Z,12.60
2022-09-21T22:12:23.284Z,12.29
2022-09-21T22:14:50.592Z,12.43
2022-09-21T22:17:17.910Z,12.38
2022-09-21T22:19:45.571Z,12.26
2022-09-21T22:22:12.884Z,12.23
2022-09-21T22:24:40.231Z,12.11
2022-09-21T22:27:07.846Z,11.54
2022-09-21T22:29:35.844Z,12.21
2022-09-21T22:32:03.284Z,12.46
2022-09-21T22:34:30.970Z,12.37
2022-09-21T22:36:59.080Z,12.11
2022-09-21T22:39:26.706Z,12.14
2022-09-21T22:41:54.352Z,12.11
2022-09-21T22:44:21.678Z,11.65
2022-09-21T22:46:49.007Z,11.81
2022-09-21T22:49:16.714Z,12.00
2022-09-21T22:51:44.071Z,11.94
2022-09-21T22:54:11.398Z,11.62
2022-09-21T22:56:38.980Z,11.32
2022-09-21T22:59:06.360Z,11.65
2022-09-21T23:01:35.501Z,11.72
2022-09-21T23:04:11.612Z,11.66
2022-09-21T23:06:41.430Z,11.80
2022-09-21T23:09:15.733Z,11.36
2022-09-21T23:11:47.160Z,11.76
2022-09-21T23:14:16.407Z,11.44
2022-09-21T23:16:44.144Z,11.82
2022-09-21T23:19:15.711Z,11.39
2022-09-21T23:21:49.632Z,11.47
2022-09-21T23:24:17.938Z,11.74
2022-09-21T23:26:45.855Z,11.88
2022-09-21T23:29:15.116Z,11.79
2022-09-21T23:31:45.382Z,11.72
2022-09-21T23:34:14.674Z,11.41
2022-09-21T23:36:42.672Z,11.84
2022-09-21T23:39:11.738Z,11.49
2022-09-21T23:41:39.727Z,11.48
2022-09-21T23:44:07.070Z,11.48
2022-09-21T23:46:36.016Z,11.69
2022-09-21T23:49:04.179Z,11.54
2022-09-21T23:51:31.537Z,11.75
2022-09-21T23:53:59.558Z,11.37
2022-09-21T23:56:28.492Z,11.72
2022-09-21T23:58:56.244Z,11.43
